Time;durP1;ratioP1;P1;durP2;ratioP2;P2;SDS_P1;SDS_P2;PMS_P1;PMS_P2;Temp;Humidity;BMP_temperature;BMP_pressure;BME280_temperature;BME280_humidity;BME280_pressure;Samples;Min_cycle;Max_cycle;Signal;HPM_P1;HPM_P2
2023/07/29 00:00:32;;;;;;;0.97;0.97;;;;;;;18.86;95.17;95176.87;4360889;32;20258;-64
2023/07/29 00:02:57;;;;;;;3.67;1.13;;;;;;;18.84;95.50;95173.75;4361021;32;20193;-64
2023/07/29 00:05:23;;;;;;;0.73;0.73;;;;;;;18.96;94.78;95178.22;4349849;32;20212;-64
2023/07/29 00:07:48;;;;;;;0.53;0.53;;;;;;;18.86;94.81;95176.09;4361214;32;20201;-64
2023/07/29 00:10:13;;;;;;;1.17;1.07;;;;;;;18.95;94.71;95173.97;4363728;32;20251;-64
2023/07/29 00:12:39;;;;;;;0.53;0.53;;;;;;;19.05;94.24;95170.00;4339921;32;20231;-64
2023/07/29 00:15:05;;;;;;;0.70;0.70;;;;;;;19.02;94.27;95166.09;4358247;32;20203;-64
2023/07/29 00:17:30;;;;;;;0.50;0.50;;;;;;;18.95;94.71;95176.69;4352371;32;20203;-64
2023/07/29 00:19:55;;;;;;;0.30;0.30;;;;;;;18.97;94.34;95171.72;4344294;32;20189;-64
2023/07/29 00:22:21;;;;;;;0.30;0.30;;;;;;;19.02;94.12;95166.09;4341260;32;20224;-64
2023/07/29 00:24:51;;;;;;;0.43;0.43;;;;;;;19.05;93.81;95161.91;4351434;32;20303;-64
2023/07/29 00:27:17;;;;;;;0.37;0.30;;;;;;;19.01;94.12;95161.84;4337407;32;20185;-64
2023/07/29 00:29:42;;;;;;;0.40;0.40;;;;;;;19.03;93.77;95164.97;4356085;32;20189;-64
2023/07/29 00:32:07;;;;;;;0.73;0.73;;;;;;;19.01;93.70;95156.47;4345547;32;20207;-64
2023/07/29 00:34:33;;;;;;;0.73;0.73;;;;;;;18.88;94.67;95152.34;4344336;32;20189;-64
2023/07/29 00:36:58;;;;;;;0.33;0.33;;;;;;;18.84;94.57;95152.25;4344785;32;20211;-64
2023/07/29 00:39:23;;;;;;;1.00;1.00;;;;;;;18.75;95.22;95150.88;4342494;32;20335;-64
2023/07/29 00:41:49;;;;;;;1.07;0.97;;;;;;;18.92;94.31;95153.16;4345776;32;20189;-64
2023/07/29 00:44:14;;;;;;;0.60;0.60;;;;;;;18.97;93.83;95160.19;4351316;32;20228;-65
2023/07/29 00:46:41;;;;;;;0.87;0.87;;;;;;;18.82;94.72;95162.56;4345901;32;20200;-64
2023/07/29 00:49:06;;;;;;;0.40;0.40;;;;;;;18.86;94.47;95159.97;4350617;32;20185;-64
2023/07/29 00:51:32;;;;;;;0.30;0.30;;;;;;;18.86;94.48;95160.75;4342313;32;20201;-64
2023/07/29 00:53:57;;;;;;;0.60;0.60;;;;;;;18.85;94.48;95156.50;4340992;32;20200;-64
2023/07/29 00:56:24;;;;;;;0.83;0.83;;;;;;;18.93;94.08;95154.72;4345708;32;20223;-64
2023/07/29 00:58:51;;;;;;;0.47;0.37;;;;;;;18.86;94.58;95154.59;4347740;32;20272;-64
2023/07/29 01:01:17;;;;;;;0.30;0.30;;;;;;;18.87;94.46;95146.19;4351190;32;20200;-64
2023/07/29 01:03:45;;;;;;;0.47;0.47;;;;;;;18.94;94.23;95150.12;4344465;32;20253;-64
2023/07/29 01:06:16;;;;;;;0.70;0.70;;;;;;;18.96;94.20;95148.66;4358287;32;20208;-64
2023/07/29 01:08:50;;;;;;;0.20;0.20;;;;;;;18.86;94.57;95150.00;4343502;32;20194;-64
2023/07/29 01:11:22;;;;;;;0.97;0.97;;;;;;;18.96;94.11;95154.03;4351938;32;20239;-65
2023/07/29 01:13:58;;;;;;;1.00;1.00;;;;;;;18.88;94.16;95157.72;4340798;32;20189;-64
2023/07/29 01:16:57;;;;;;;0.23;0.23;;;;;;;18.75;94.89;95157.03;4358240;32;20251;-64
2023/07/29 01:20:05;;;;;;;0.80;0.80;;;;;;;18.93;94.06;95154.72;4355156;32;20182;-64
2023/07/29 01:22:33;;;;;;;0.40;0.40;;;;;;;18.90;94.08;95149.31;4356188;32;20220;-64
2023/07/29 01:24:59;;;;;;;0.57;0.57;;;;;;;18.88;94.25;95138.91;4354673;32;20243;-64
2023/07/29 01:27:26;;;;;;;0.20;0.20;;;;;;;18.90;94.05;95139.31;4344129;32;20278;-64
2023/07/29 01:29:55;;;;;;;0.40;0.40;;;;;;;18.94;93.81;95134.78;4335297;32;20194;-64
2023/07/29 01:32:46;;;;;;;0.57;0.57;;;;;;;18.85;94.03;95134.22;4357569;32;20205;-64
2023/07/29 01:35:31;;;;;;;0.93;0.93;;;;;;;18.75;94.69;95134.75;4344249;32;20201;-64
2023/07/29 01:38:05;;;;;;;0.93;0.93;;;;;;;18.85;94.42;95131.53;4353549;32;20203;-64
2023/07/29 01:40:36;;;;;;;0.53;0.53;;;;;;;18.86;94.31;95127.72;4352845;32;20188;-64
2023/07/29 01:43:02;;;;;;;0.63;0.63;;;;;;;18.76;94.43;95131.69;4338852;32;20221;-64
2023/07/29 01:45:31;;;;;;;0.53;0.53;;;;;;;18.66;94.88;95129.56;4350376;32;20273;-64
2023/07/29 01:47:57;;;;;;;0.77;0.77;;;;;;;18.71;94.59;95125.81;4339366;32;20239;-64
2023/07/29 01:50:22;;;;;;;0.47;0.47;;;;;;;18.64;94.96;95128.34;4361048;32;20192;-64
2023/07/29 01:52:47;;;;;;;0.90;0.90;;;;;;;18.77;94.44;95119.81;4345076;32;20192;-64
2023/07/29 01:55:13;;;;;;;0.80;0.80;;;;;;;18.74;94.71;95125.13;4342300;32;20197;-64
2023/07/29 01:57:38;;;;;;;0.27;0.27;;;;;;;18.69;95.10;95118.13;4361603;32;20226;-64
2023/07/29 02:00:04;;;;;;;0.67;0.67;;;;;;;18.53;95.86;95131.53;4345686;32;20336;-64
2023/07/29 02:02:29;;;;;;;0.53;0.53;;;;;;;18.27;96.82;95127.84;4358790;32;20207;-64
2023/07/29 02:04:55;;;;;;;3.30;1.00;;;;;;;18.49;95.90;95130.69;4355866;32;20232;-64
2023/07/29 02:07:21;;;;;;;0.47;0.47;;;;;;;18.46;96.03;95126.00;4341539;32;20208;-64
2023/07/29 02:09:47;;;;;;;0.83;0.83;;;;;;;18.39;96.24;95125.03;4350468;32;20201;-64
2023/07/29 02:12:12;;;;;;;1.50;0.80;;;;;;;18.64;95.54;95122.97;4357572;32;20239;-64
2023/07/29 02:14:38;;;;;;;1.00;1.00;;;;;;;18.76;94.64;95115.56;4352338;32;20193;-64
2023/07/29 02:17:05;;;;;;;1.93;0.60;;;;;;;18.73;94.61;95118.19;4343214;32;20340;-64
2023/07/29 02:19:31;;;;;;;0.53;0.53;;;;;;;18.71;94.67;95112.38;4341893;32;20197;-64
2023/07/29 02:21:56;;;;;;;2.10;1.10;;;;;;;18.76;94.42;95106.72;4341858;32;20264;-64
2023/07/29 02:24:21;;;;;;;1.47;0.53;;;;;;;18.59;94.98;95115.97;4343639;32;20234;-64
2023/07/29 02:26:47;;;;;;;0.73;0.73;;;;;;;18.60;95.32;95108.69;4333427;32;20250;-64
2023/07/29 02:29:13;;;;;;;0.57;0.57;;;;;;;18.71;94.90;95109.69;4347668;32;20218;-64
2023/07/29 02:31:38;;;;;;;0.40;0.40;;;;;;;18.73;94.73;95118.97;4337980;32;20208;-64
2023/07/29 02:34:04;;;;;;;0.67;0.67;;;;;;;18.72;94.69;95113.94;4339035;32;20269;-64
2023/07/29 02:36:29;;;;;;;0.40;0.40;;;;;;;18.70;94.34;95117.00;4325322;32;20256;-64
2023/07/29 02:38:55;;;;;;;1.60;0.40;;;;;;;18.68;94.47;95121.94;4330053;32;20178;-64
2023/07/29 02:41:23;;;;;;;0.27;0.27;;;;;;;18.65;94.88;95124.53;4330190;32;20201;-64
2023/07/29 02:43:50;;;;;;;0.60;0.60;;;;;;;18.60;94.78;95120.22;4344359;32;20197;-64
2023/07/29 02:46:15;;;;;;;0.53;0.53;;;;;;;18.33;95.12;95129.91;4339151;32;20252;-65
2023/07/29 02:48:42;;;;;;;1.23;0.77;;;;;;;18.62;95.05;95127.91;4332204;32;20209;-64
2023/07/29 02:51:07;;;;;;;0.50;0.50;;;;;;;18.63;94.90;95135.63;4339959;32;20209;-64
2023/07/29 02:53:32;;;;;;;0.43;0.43;;;;;;;18.63;95.07;95134.84;4327466;32;20197;-64
2023/07/29 02:55:58;;;;;;;0.73;0.73;;;;;;;18.44;95.64;95124.78;4335701;32;20320;-64
2023/07/29 02:58:23;;;;;;;0.60;0.60;;;;;;;18.36;95.16;95131.88;4334917;32;20179;-64
2023/07/29 03:00:48;;;;;;;0.60;0.60;;;;;;;18.38;95.34;95126.16;4341375;32;20193;-64
2023/07/29 03:03:14;;;;;;;0.87;0.87;;;;;;;18.53;95.09;95126.16;4328993;33;20236;-64
2023/07/29 03:05:39;;;;;;;0.33;0.33;;;;;;;18.61;95.04;95126.38;4337733;32;20246;-64
2023/07/29 03:08:05;;;;;;;0.30;0.30;;;;;;;18.56;94.79;95119.31;4340448;32;20209;-64
2023/07/29 03:10:30;;;;;;;0.67;0.67;;;;;;;18.58;94.81;95121.66;4329474;33;20229;-64
2023/07/29 03:12:56;;;;;;;1.20;1.10;;;;;;;18.41;95.51;95123.56;4342223;32;20209;-64
2023/07/29 03:15:25;;;;;;;0.70;0.70;;;;;;;18.46;95.08;95123.31;4347217;32;20243;-64
2023/07/29 03:17:54;;;;;;;0.53;0.53;;;;;;;18.48;94.89;95117.59;4339646;32;20189;-64
2023/07/29 03:20:20;;;;;;;0.53;0.53;;;;;;;18.55;94.62;95117.75;4325288;33;20194;-64
2023/07/29 03:22:45;;;;;;;0.40;0.40;;;;;;;18.59;94.17;95112.47;4330653;32;20277;-65
2023/07/29 03:25:11;;;;;;;11.00;1.47;;;;;;;18.59;94.19;95117.84;4346985;32;20193;-64
2023/07/29 03:27:36;;;;;;;0.50;0.43;;;;;;;18.49;94.22;95128.00;4337999;32;20197;-64
2023/07/29 03:30:03;;;;;;;0.77;0.70;;;;;;;18.30;95.04;95127.91;4334859;32;20201;-64
2023/07/29 03:32:28;;;;;;;0.30;0.30;;;;;;;18.23;95.38;95119.69;4337431;33;20193;-64
2023/07/29 03:34:53;;;;;;;4.90;0.97;;;;;;;18.13;95.94;95102.16;4328291;32;20242;-64
2023/07/29 03:37:19;;;;;;;0.30;0.30;;;;;;;18.46;95.03;95098.38;4328990;32;20190;-64
2023/07/29 03:39:46;;;;;;;0.50;0.50;;;;;;;18.39;94.41;95101.66;4352187;32;20291;-64
2023/07/29 03:42:12;;;;;;;0.30;0.30;;;;;;;18.39;94.79;95103.56;4344517;33;20200;-64
2023/07/29 03:44:39;;;;;;;0.83;0.83;;;;;;;18.34;94.48;95112.66;4339605;32;20249;-64
2023/07/29 03:47:05;;;;;;;2.80;0.50;;;;;;;18.38;94.77;95113.53;4326905;33;20291;-64
2023/07/29 03:49:30;;;;;;;0.30;0.30;;;;;;;18.24;94.78;95118.56;4345004;32;20226;-64
2023/07/29 03:51:56;;;;;;;0.20;0.20;;;;;;;18.43;94.55;95121.31;4344058;32;20189;-64
2023/07/29 03:54:21;;;;;;;0.57;0.57;;;;;;;18.36;94.60;95121.16;4325577;32;20201;-64
2023/07/29 03:56:46;;;;;;;0.83;0.83;;;;;;;18.35;94.44;95119.59;4328387;32;20205;-64
2023/07/29 03:59:12;;;;;;;0.43;0.43;;;;;;;18.45;94.32;95123.66;4338828;32;20204;-64
2023/07/29 04:01:37;;;;;;;0.53;0.40;;;;;;;18.33;94.56;95121.84;4326864;33;20233;-64
2023/07/29 04:04:02;;;;;;;0.57;0.57;;;;;;;18.52;94.14;95121.13;4335569;32;20212;-64
2023/07/29 04:06:28;;;;;;;0.30;0.30;;;;;;;18.33;93.89;95121.84;4339937;32;20185;-64
2023/07/29 04:08:53;;;;;;;0.43;0.43;;;;;;;18.26;94.61;95124.38;4333802;32;20186;-64
2023/07/29 04:11:19;;;;;;;0.40;0.40;;;;;;;18.16;95.08;95109.53;4344779;32;20189;-64
2023/07/29 04:13:44;;;;;;;0.60;0.60;;;;;;;18.28;94.93;95108.69;4337200;32;20204;-64
2023/07/29 04:16:09;;;;;;;1.40;0.87;;;;;;;18.39;94.92;95103.56;4354103;32;20185;-64
2023/07/29 04:18:35;;;;;;;0.60;0.60;;;;;;;18.36;94.62;95088.12;4362410;32;20212;-64
2023/07/29 04:21:00;;;;;;;0.63;0.63;;;;;;;18.33;94.90;95092.28;4362285;32;20184;-65
2023/07/29 04:23:26;;;;;;;3.83;0.87;;;;;;;18.27;95.17;95085.66;4357768;32;20189;-64
2023/07/29 04:25:51;;;;;;;0.83;0.83;;;;;;;18.13;95.42;95085.28;4359891;32;20194;-64
2023/07/29 04:28:17;;;;;;;0.33;0.33;;;;;;;18.08;95.67;95077.50;4347233;32;20219;-64
2023/07/29 04:30:42;;;;;;;0.40;0.40;;;;;;;17.97;96.44;95074.56;4348264;32;20238;-64
2023/07/29 04:33:07;;;;;;;0.60;0.50;;;;;;;18.17;96.18;95068.13;4352318;32;20197;-64
2023/07/29 04:35:33;;;;;;;0.33;0.33;;;;;;;18.16;96.31;95073.84;4357186;32;20223;-64
2023/07/29 04:37:58;;;;;;;0.30;0.30;;;;;;;18.18;96.10;95069.69;4349329;32;20204;-64
2023/07/29 04:40:23;;;;;;;3.03;0.87;;;;;;;18.38;95.17;95073.22;4349184;32;20192;-64
2023/07/29 04:42:50;;;;;;;0.33;0.33;;;;;;;18.27;95.50;95072.22;4347729;32;20193;-63
2023/07/29 04:45:16;;;;;;;0.63;0.63;;;;;;;18.47;94.69;95079.22;4350180;32;20216;-64
2023/07/29 04:47:41;;;;;;;1.20;0.83;;;;;;;18.53;94.56;95072.41;4358087;32;20245;-64
2023/07/29 04:50:07;;;;;;;0.70;0.70;;;;;;;18.60;94.18;95074.53;4348144;32;20188;-64
2023/07/29 04:52:33;;;;;;;0.83;0.83;;;;;;;18.58;93.96;95084.03;4346034;32;20204;-64
2023/07/29 04:54:58;;;;;;;0.70;0.70;;;;;;;18.47;94.68;95081.12;4347473;32;20233;-64
2023/07/29 04:57:23;;;;;;;0.20;0.20;;;;;;;18.53;94.56;95088.53;4357948;32;20203;-64
2023/07/29 04:59:49;;;;;;;0.73;0.73;;;;;;;18.51;94.60;95084.63;4346434;32;20203;-64
2023/07/29 05:02:15;;;;;;;2.93;1.07;;;;;;;18.50;94.94;95086.53;4347941;32;20189;-64
2023/07/29 05:04:40;;;;;;;0.80;0.80;;;;;;;18.54;94.70;95079.34;4356627;32;20266;-64
2023/07/29 05:07:06;;;;;;;2.43;1.00;;;;;;;18.55;95.34;95083.59;4362509;32;20197;-64
2023/07/29 05:09:31;;;;;;;0.47;0.47;;;;;;;18.54;95.20;95078.56;4362777;32;20214;-64
2023/07/29 05:11:57;;;;;;;0.43;0.43;;;;;;;18.65;94.99;95078.84;4353453;32;20193;-64
2023/07/29 05:14:22;;;;;;;0.70;0.70;;;;;;;18.69;95.02;95074.34;4340411;32;20276;-64
2023/07/29 05:16:47;;;;;;;0.40;0.40;;;;;;;18.78;94.56;95072.22;4345214;32;20204;-64
2023/07/29 05:19:13;;;;;;;0.87;0.87;;;;;;;18.83;94.97;95059.28;4347799;32;20196;-64
2023/07/29 05:21:40;;;;;;;0.40;0.40;;;;;;;18.82;94.84;95049.66;4345654;32;20194;-64
2023/07/29 05:24:07;;;;;;;0.47;0.47;;;;;;;18.83;95.04;95055.81;4341937;32;20342;-64
2023/07/29 05:26:35;;;;;;;0.50;0.50;;;;;;;18.97;94.13;95045.38;4357738;32;20193;-64
2023/07/29 05:29:00;;;;;;;0.50;0.50;;;;;;;19.00;94.12;95036.59;4327925;32;20227;-64
2023/07/29 05:31:26;;;;;;;1.00;1.00;;;;;;;18.97;94.04;95042.66;4316316;32;20197;-64
2023/07/29 05:33:51;;;;;;;0.50;0.50;;;;;;;19.03;93.66;95040.50;4347126;32;20244;-64
2023/07/29 05:36:16;;;;;;;2.33;1.13;;;;;;;18.95;93.60;95050.31;4352593;32;20235;-64
2023/07/29 05:38:42;;;;;;;0.30;0.30;;;;;;;19.07;93.75;95044.03;4363148;32;20252;-64
2023/07/29 05:41:07;;;;;;;0.90;0.63;;;;;;;19.18;93.09;95053.84;4351655;32;20189;-64
2023/07/29 05:43:33;;;;;;;0.80;0.80;;;;;;;19.12;93.38;95063.34;4361583;32;20189;-64
2023/07/29 05:45:58;;;;;;;0.60;0.60;;;;;;;19.20;93.99;95067.72;4348044;32;20204;-64
2023/07/29 05:48:23;;;;;;;0.40;0.40;;;;;;;19.16;94.45;95066.88;4361388;32;20199;-64
2023/07/29 05:50:49;;;;;;;0.60;0.60;;;;;;;19.23;94.34;95074.31;4342050;32;20188;-64
2023/07/29 05:53:14;;;;;;;0.70;0.70;;;;;;;19.18;95.02;95070.00;4349918;32;20231;-64
2023/07/29 05:55:39;;;;;;;0.97;0.87;;;;;;;19.32;94.82;95069.50;4347288;32;20184;-64
2023/07/29 05:58:05;;;;;;;0.20;0.20;;;;;;;19.32;94.78;95074.91;4347766;32;20189;-64
2023/07/29 06:00:31;;;;;;;0.40;0.40;;;;;;;19.31;94.08;95059.09;4327744;32;20245;-64
2023/07/29 06:02:56;;;;;;;0.30;0.30;;;;;;;19.28;93.69;95073.25;4345886;32;20193;-63
2023/07/29 06:05:21;;;;;;;0.30;0.30;;;;;;;19.39;92.52;95111.91;4351730;32;20197;-64
2023/07/29 06:07:48;;;;;;;0.80;0.80;;;;;;;19.25;93.98;95149.28;4350723;32;20223;-64
2023/07/29 06:10:18;;;;;;;0.33;0.30;;;;;;;19.07;95.97;95154.28;4359935;32;20189;-64
2023/07/29 06:12:43;;;;;;;0.70;0.70;;;;;;;18.94;96.72;95107.91;4354877;32;20182;-64
2023/07/29 06:15:09;;;;;;;0.90;0.47;;;;;;;18.97;97.00;95091.06;4347199;32;20199;-64
2023/07/29 06:17:34;;;;;;;0.97;0.90;;;;;;;18.96;96.66;95072.59;4340427;32;20311;-64
2023/07/29 06:20:00;;;;;;;8.47;0.83;;;;;;;18.98;96.64;95056.91;4353979;32;20189;-64
2023/07/29 06:22:25;;;;;;;1.53;0.57;;;;;;;18.99;96.68;95059.22;4361360;32;20224;-64
2023/07/29 06:24:50;;;;;;;0.30;0.30;;;;;;;18.97;96.66;95061.50;4351752;32;20242;-64
2023/07/29 06:27:16;;;;;;;0.23;0.23;;;;;;;18.92;96.99;95059.06;4359437;32;20196;-65
2023/07/29 06:29:41;;;;;;;5.40;0.83;;;;;;;18.90;97.23;95065.97;4359000;32;20189;-65
2023/07/29 06:32:07;;;;;;;1.17;1.07;;;;;;;18.96;96.86;95084.13;4353506;32;20205;-64
2023/07/29 06:34:32;;;;;;;0.97;0.80;;;;;;;19.02;96.70;95079.25;4351877;32;20207;-63
2023/07/29 06:36:57;;;;;;;0.10;0.10;;;;;;;18.92;97.62;95079.81;4345635;32;20189;-65
2023/07/29 06:39:22;;;;;;;1.03;0.93;;;;;;;18.99;97.55;95082.66;4346268;32;20211;-64
2023/07/29 06:41:48;;;;;;;0.37;0.30;;;;;;;19.11;96.85;95091.38;4352882;32;20247;-64
2023/07/29 06:44:13;;;;;;;0.40;0.40;;;;;;;19.10;97.25;95107.87;4358148;32;20197;-63
2023/07/29 06:46:39;;;;;;;0.30;0.30;;;;;;;18.66;100.00;95112.66;4360400;32;20184;-63
2023/07/29 06:49:05;;;;;;;0.63;0.63;;;;;;;18.75;99.45;95108.66;4358271;32;20318;-64
2023/07/29 06:51:34;;;;;;;0.30;0.30;;;;;;;18.86;98.37;95123.13;4353227;32;20238;-64
2023/07/29 06:53:59;;;;;;;1.80;0.60;;;;;;;18.94;97.87;95142.84;4346639;32;20193;-64
2023/07/29 06:56:24;;;;;;;0.70;0.70;;;;;;;18.85;98.55;95148.44;4355266;32;20295;-64
2023/07/29 06:58:50;;;;;;;0.50;0.50;;;;;;;18.69;99.59;95154.97;4344457;32;20252;-64
2023/07/29 07:01:15;;;;;;;0.63;0.63;;;;;;;18.48;100.00;95161.37;4345402;32;20232;-64
2023/07/29 07:03:40;;;;;;;0.83;0.83;;;;;;;18.59;99.86;95168.87;4360453;32;20207;-64
2023/07/29 07:06:06;;;;;;;4.43;1.13;;;;;;;18.43;100.00;95164.31;4354915;32;20188;-64
2023/07/29 07:08:31;;;;;;;0.40;0.40;;;;;;;18.47;100.00;95165.19;4344286;32;20221;-64
2023/07/29 07:10:56;;;;;;;0.50;0.50;;;;;;;18.49;100.00;95165.62;4346273;32;20247;-64
2023/07/29 07:13:22;;;;;;;0.73;0.73;;;;;;;18.61;100.00;95153.22;4346139;32;20227;-64
2023/07/29 07:15:47;;;;;;;0.57;0.57;;;;;;;18.66;100.00;95161.03;4344795;32;20211;-64
2023/07/29 07:18:13;;;;;;;0.80;0.80;;;;;;;18.64;99.98;95155.22;4346557;32;20203;-64
2023/07/29 07:20:38;;;;;;;0.67;0.67;;;;;;;18.82;99.33;95151.81;4343837;32;20193;-64
2023/07/29 07:23:05;;;;;;;1.33;1.23;;;;;;;18.79;99.50;95155.19;4344526;32;22661;-64
2023/07/29 07:25:31;;;;;;;0.37;0.37;;;;;;;18.69;100.00;95152.28;4354270;32;20223;-64
2023/07/29 07:27:56;;;;;;;0.60;0.60;;;;;;;18.69;100.00;95152.28;4344068;32;20217;-64
2023/07/29 07:30:21;;;;;;;0.70;0.70;;;;;;;18.65;100.00;95151.41;4344894;32;20335;-64
2023/07/29 07:32:47;;;;;;;1.47;0.40;;;;;;;18.65;100.00;95148.72;4351928;32;20207;-64
2023/07/29 07:35:12;;;;;;;0.23;0.23;;;;;;;18.74;100.00;95147.41;4361347;32;20180;-64
2023/07/29 07:37:38;;;;;;;0.37;0.37;;;;;;;18.59;100.00;95140.16;4344267;32;20261;-63
2023/07/29 07:40:03;;;;;;;0.83;0.83;;;;;;;18.77;100.00;95130.56;4357631;32;20181;-64
2023/07/29 07:42:29;;;;;;;1.27;0.80;;;;;;;18.86;99.09;95111.59;4360903;32;20196;-64
2023/07/29 07:44:54;;;;;;;1.03;0.97;;;;;;;18.97;99.26;95122.56;4361490;32;20215;-64
2023/07/29 07:47:19;;;;;;;3.63;0.93;;;;;;;19.00;99.16;95105.72;4347403;32;20216;-64
2023/07/29 07:49:44;;;;;;;10.63;0.97;;;;;;;18.99;99.21;95098.78;4362386;32;20267;-64
2023/07/29 07:52:10;;;;;;;0.63;0.63;;;;;;;19.17;99.04;95092.63;4346749;32;20189;-65
2023/07/29 07:54:35;;;;;;;0.73;0.73;;;;;;;19.19;98.99;95076.94;4354818;32;20251;-64
2023/07/29 07:57:00;;;;;;;0.53;0.53;;;;;;;19.25;98.87;95074.75;4361286;32;20291;-64
2023/07/29 07:59:26;;;;;;;0.30;0.30;;;;;;;19.32;99.16;95079.50;4357583;32;20282;-65
2023/07/29 08:01:52;;;;;;;0.90;0.60;;;;;;;19.30;99.61;95079.06;4362060;32;20185;-63
2023/07/29 08:04:17;;;;;;;0.77;0.77;;;;;;;19.37;99.11;95082.66;4360981;32;20185;-65
2023/07/29 08:06:42;;;;;;;2.57;0.90;;;;;;;19.35;98.78;95095.69;4360796;32;20200;-64
2023/07/29 08:09:08;;;;;;;0.63;0.63;;;;;;;19.40;98.43;95095.41;4361100;32;20258;-64
2023/07/29 08:11:33;;;;;;;0.60;0.60;;;;;;;19.39;99.06;95090.38;4347775;32;20199;-64
2023/07/29 08:13:58;;;;;;;0.50;0.50;;;;;;;19.10;100.00;95089.81;4358306;32;20205;-64
2023/07/29 08:16:24;;;;;;;0.93;0.93;;;;;;;18.12;100.00;95097.94;4347207;32;20241;-64
2023/07/29 08:18:49;;;;;;;0.50;0.50;;;;;;;18.08;100.00;95099.00;4359304;32;20193;-66
2023/07/29 08:21:15;;;;;;;0.90;0.87;;;;;;;18.43;100.00;95091.00;4360611;32;20185;-65
2023/07/29 08:23:40;;;;;;;0.50;0.50;;;;;;;18.75;100.00;95102.50;4361329;32;20239;-65
2023/07/29 08:26:06;;;;;;;0.80;0.80;;;;;;;18.98;100.00;95092.63;4357004;32;20248;-67
2023/07/29 08:28:36;;;;;;;0.73;0.73;;;;;;;19.17;100.00;95094.56;4357283;32;20185;-65
2023/07/29 08:31:02;;;;;;;5.53;0.87;;;;;;;19.32;100.00;95095.62;4348002;32;20193;-65
2023/07/29 08:33:27;;;;;;;0.73;0.73;;;;;;;19.49;100.00;95087.91;4346231;32;20197;-65
2023/07/29 08:35:53;;;;;;;0.53;0.53;;;;;;;19.64;100.00;95086.28;4357596;32;20270;-65
2023/07/29 08:38:18;;;;;;;1.40;0.93;;;;;;;19.73;100.00;95089.53;4357328;32;20182;-66
2023/07/29 08:40:58;;;;;;;1.03;1.03;;;;;;;19.87;100.00;95078.25;4363524;32;20229;-66
2023/07/29 08:43:31;;;;;;;2.53;0.60;;;;;;;19.97;99.77;95098.41;4345085;32;20193;-66
2023/07/29 08:45:57;;;;;;;0.50;0.50;;;;;;;19.96;100.00;95092.22;4360268;32;20185;-65
2023/07/29 08:48:39;;;;;;;1.13;1.07;;;;;;;20.03;98.62;95089.66;4360181;32;20189;-66
2023/07/29 08:51:06;;;;;;;2.10;1.30;;;;;;;20.09;98.25;95095.53;4347923;32;20193;-65
2023/07/29 08:53:31;;;;;;;0.77;0.77;;;;;;;19.99;100.00;95091.50;4337888;32;20219;-65
2023/07/29 08:55:57;;;;;;;1.00;1.00;;;;;;;20.09;98.97;95090.16;4360799;32;20315;-66
2023/07/29 08:58:24;;;;;;;0.90;0.90;;;;;;;20.08;99.33;95096.69;4344186;32;20177;-66
2023/07/29 09:00:50;;;;;;;3.43;1.07;;;;;;;20.19;98.64;95090.31;4347759;32;20193;-65
2023/07/29 09:03:15;;;;;;;0.63;0.63;;;;;;;20.21;98.76;95095.34;4354937;32;20201;-65
2023/07/29 09:05:40;;;;;;;1.30;1.30;;;;;;;20.16;100.00;95095.66;4362892;32;20193;-65
2023/07/29 09:08:08;;;;;;;1.87;1.03;;;;;;;20.20;99.99;95091.09;4358087;32;20197;-65
2023/07/29 09:10:37;;;;;;;0.70;0.70;;;;;;;20.11;100.00;95093.28;4346321;32;20209;-66
2023/07/29 09:13:03;;;;;;;0.60;0.60;;;;;;;20.19;100.00;95094.94;4359819;32;20210;-67
2023/07/29 09:15:31;;;;;;;0.80;0.80;;;;;;;20.32;100.00;95099.00;4346886;32;20197;-66
2023/07/29 09:17:57;;;;;;;0.97;0.97;;;;;;;20.32;100.00;95096.31;4359268;32;20243;-65
2023/07/29 09:20:29;;;;;;;0.80;0.80;;;;;;;20.40;100.00;95098.00;4349204;32;20181;-65
2023/07/29 09:22:57;;;;;;;0.50;0.50;;;;;;;20.30;100.00;95098.59;4354449;32;20217;-66
2023/07/29 09:25:27;;;;;;;1.63;1.13;;;;;;;20.28;100.00;95100.87;4342442;32;20240;-65
2023/07/29 09:27:58;;;;;;;2.73;1.13;;;;;;;20.37;100.00;95098.72;4343669;32;20220;-64
2023/07/29 09:30:23;;;;;;;0.87;0.70;;;;;;;20.43;100.00;95099.19;4346928;32;20197;-64
2023/07/29 09:32:54;;;;;;;0.83;0.83;;;;;;;20.52;100.00;95097.81;4338726;32;20209;-64
2023/07/29 09:35:20;;;;;;;1.20;1.20;;;;;;;20.58;100.00;95093.66;4344902;32;20194;-64
2023/07/29 09:37:45;;;;;;;0.57;0.57;;;;;;;20.67;98.87;95092.63;4337925;32;20271;-64
2023/07/29 09:40:15;;;;;;;0.70;0.70;;;;;;;20.79;98.33;95089.72;4263807;32;20347;-65
2023/07/29 09:42:47;;;;;;;1.23;1.17;;;;;;;20.91;98.55;95087.59;4328672;32;20250;-65
2023/07/29 09:45:19;;;;;;;1.70;0.87;;;;;;;21.01;99.13;95090.78;4315813;32;20235;-65
2023/07/29 09:47:46;;;;;;;0.87;0.87;;;;;;;20.97;97.98;95090.75;4335835;32;20247;-65
2023/07/29 09:50:11;;;;;;;0.77;0.77;;;;;;;21.01;98.12;95090.78;4353926;32;20193;-65
2023/07/29 09:52:37;;;;;;;1.17;1.17;;;;;;;21.08;97.85;95088.19;4327071;32;20234;-65
2023/07/29 09:55:02;;;;;;;1.53;1.43;;;;;;;21.11;96.77;95088.25;4332970;32;20213;-65
2023/07/29 09:57:28;;;;;;;0.73;0.73;;;;;;;21.11;95.45;95077.44;4346893;32;20223;-65
2023/07/29 09:59:54;;;;;;;1.97;0.97;;;;;;;21.10;94.94;95083.97;4344728;32;20200;-64
2023/07/29 10:02:21;;;;;;;1.60;1.20;;;;;;;21.22;93.83;95086.47;4343086;32;20255;-65
2023/07/29 10:04:46;;;;;;;6.43;5.90;;;;;;;21.34;93.68;95076.59;4331672;32;20282;-65
2023/07/29 10:07:14;;;;;;;21.57;19.20;;;;;;;21.40;93.20;95075.91;4340568;32;20234;-64
2023/07/29 10:09:40;;;;;;;8.00;7.37;;;;;;;21.44;93.57;95075.94;4345542;32;20280;-64
2023/07/29 10:12:09;;;;;;;3.23;2.93;;;;;;;21.51;93.91;95067.91;4321580;32;20284;-64
2023/07/29 10:14:36;;;;;;;15.83;11.47;;;;;;;21.53;94.67;95079.91;4354248;32;21385;-65
2023/07/29 10:17:02;;;;;;;20.20;16.10;;;;;;;21.58;94.34;95065.31;4333629;32;20198;-65
2023/07/29 10:19:30;;;;;;;7.83;6.97;;;;;;;21.59;94.42;95067.63;4340712;32;20189;-65
2023/07/29 10:22:00;;;;;;;13.13;12.03;;;;;;;21.68;93.70;95061.94;4338363;32;20215;-64
2023/07/29 10:24:30;;;;;;;2.63;2.53;;;;;;;21.68;92.75;95070.03;4345845;32;20190;-65
2023/07/29 10:27:00;;;;;;;1.10;1.10;;;;;;;21.71;92.46;95063.88;4349184;32;20191;-65
2023/07/29 10:29:32;;;;;;;4.90;4.40;;;;;;;21.74;91.49;95065.84;4355516;32;20224;-65
2023/07/29 10:31:59;;;;;;;5.93;2.87;;;;;;;21.87;89.83;95059.03;4346547;32;20262;-65
2023/07/29 10:34:25;;;;;;;5.70;5.10;;;;;;;22.06;88.48;95057.28;4370160;32;20180;-65
2023/07/29 10:36:52;;;;;;;16.83;11.90;;;;;;;22.15;87.88;95055.06;4369645;32;20212;-65
2023/07/29 10:39:17;;;;;;;22.17;15.17;;;;;;;22.23;87.93;95045.88;4371363;32;20185;-65
2023/07/29 10:41:56;;;;;;;2.57;2.43;;;;;;;22.29;87.96;95044.34;4359163;32;20264;-65
2023/07/29 10:44:39;;;;;;;1.93;1.13;;;;;;;22.32;86.71;95049.03;4358505;32;20231;-65
2023/07/29 10:47:14;;;;;;;5.13;1.23;;;;;;;22.36;87.54;95043.66;4373704;32;22654;-65
2023/07/29 10:49:45;;;;;;;0.83;0.83;;;;;;;22.49;87.06;95051.06;4359563;32;20184;-65
2023/07/29 10:52:15;;;;;;;0.60;0.60;;;;;;;22.60;84.44;95045.75;4364284;32;20195;-64
2023/07/29 10:54:48;;;;;;;1.00;1.00;;;;;;;22.60;85.71;95048.44;4355645;32;20203;-64
2023/07/29 10:57:31;;;;;;;0.83;0.83;;;;;;;22.67;86.14;95042.28;4365126;32;20181;-65
2023/07/29 10:59:57;;;;;;;1.27;1.23;;;;;;;22.67;83.97;95037.66;4351163;32;20261;-64
2023/07/29 11:02:30;;;;;;;0.87;0.87;;;;;;;22.70;83.19;95046.94;4356925;32;20177;-64
2023/07/29 11:04:55;;;;;;;1.47;1.37;;;;;;;22.70;84.91;95025.31;4348823;32;20209;-64
2023/07/29 11:07:29;;;;;;;0.83;0.83;;;;;;;22.73;85.32;95032.66;4369863;32;20181;-64
2023/07/29 11:09:59;;;;;;;1.43;1.33;;;;;;;22.99;82.17;95031.69;4350119;32;20177;-65
2023/07/29 11:12:45;;;;;;;0.30;0.27;;;;;;;23.24;81.74;95033.34;4354544;32;20244;-64
2023/07/29 11:15:10;;;;;;;0.40;0.40;;;;;;;23.26;81.03;95030.25;4369693;32;20185;-64
2023/07/29 11:17:39;;;;;;;0.40;0.40;;;;;;;23.15;81.04;95024.78;4359574;32;20212;-64
2023/07/29 11:20:07;;;;;;;0.90;0.90;;;;;;;23.20;79.56;95027.12;4360352;32;20190;-63
2023/07/29 11:22:33;;;;;;;0.40;0.40;;;;;;;23.07;80.97;95044.84;4360930;32;20201;-64
2023/07/29 11:24:58;;;;;;;0.63;0.63;;;;;;;23.14;78.59;95058.44;4373466;32;20242;-64
2023/07/29 11:27:23;;;;;;;0.53;0.53;;;;;;;22.99;75.10;95046.00;4371571;32;20186;-64
2023/07/29 11:29:49;;;;;;;0.47;0.47;;;;;;;22.80;74.73;95041.66;4357547;32;20236;-63